Terminal Aerodrome Forecast
Issued by NWS Shreveport, LA

Current Version | Previous Version | Text Only | Print | Product List | Glossary On
Versions: 1 2 3 4 5 6 7 8 9 10 11 12 13 14 15 16 17 18
000
FTUS44 KSHV 241100
TAFTXK
TAF
KTXK 241137Z 2412/2512 15007KT P6SM SCT025 BKN250
     FM241500 19011G18KT P6SM BKN040
     FM241700 19012G20KT P6SM VCTS BKN040CB
      TEMPO 2418/2422 5SM -TSRA BR
     FM242300 27013G22KT P6SM SKC
     FM250100 30007KT P6SM SKC=

USA.gov is the U.S. government's official web portal to all federal, state and local government web resources and services.